createdAt,value
2018-07-17T00:00:38.340Z,98659.66
2018-07-17T00:03:07.436Z,98655.71
2018-07-17T00:05:36.515Z,98662.55
2018-07-17T00:08:05.696Z,98659.98
2018-07-17T00:10:34.784Z,98660.52
2018-07-17T00:13:03.830Z,98666.39
2018-07-17T00:15:32.906Z,98665.38
2018-07-17T00:18:02.311Z,98665.02
2018-07-17T00:20:31.433Z,98669.06
2018-07-17T00:23:00.490Z,98671.94
2018-07-17T00:25:29.577Z,98673.41
2018-07-17T00:27:58.762Z,98670.82
2018-07-17T00:30:27.907Z,98665.18
2018-07-17T00:32:56.951Z,98663.77
2018-07-17T00:35:26.081Z,98664.55
2018-07-17T00:37:55.223Z,98666.11
2018-07-17T00:40:24.268Z,98676.28
2018-07-17T00:42:53.286Z,98674.51
2018-07-17T00:45:22.470Z,98673.89
2018-07-17T00:47:51.786Z,98677.68
2018-07-17T00:50:20.832Z,98676.14
2018-07-17T00:52:49.850Z,98672.41
2018-07-17T00:55:18.946Z,98678.39
2018-07-17T00:57:47.982Z,98669.38
2018-07-17T01:00:17.038Z,98669.75
2018-07-17T01:02:51.152Z,98674.78
2018-07-17T01:05:25.441Z,98671.06
2018-07-17T01:07:59.729Z,98674.91
2018-07-17T01:10:34.110Z,98673.29
2018-07-17T01:13:02.346Z,98673.84
2018-07-17T01:15:35.253Z,98674.35
2018-07-17T01:18:04.325Z,98664.52
2018-07-17T01:20:33.685Z,98654.41
2018-07-17T01:23:02.770Z,98656.72
2018-07-17T01:25:32.286Z,98655.50
2018-07-17T01:28:01.379Z,98655.22
2018-07-17T01:30:30.437Z,98652.86
2018-07-17T01:32:59.519Z,98653.19
2018-07-17T01:35:28.626Z,98654.86
2018-07-17T01:37:57.702Z,98649.23
2018-07-17T01:40:26.759Z,98652.86
2018-07-17T01:42:55.835Z,98660.74
2018-07-17T01:45:24.891Z,98667.80
2018-07-17T01:47:54.025Z,98669.28
2018-07-17T01:50:23.153Z,98673.39
2018-07-17T01:52:52.238Z,98670.17
2018-07-17T01:55:21.520Z,98665.23
2018-07-17T01:57:50.649Z,98666.48
2018-07-17T02:00:19.775Z,98660.42
2018-07-17T02:02:48.833Z,98665.19
2018-07-17T02:05:17.913Z,98670.13
2018-07-17T02:07:46.980Z,98668.36
2018-07-17T02:10:16.018Z,98668.11
2018-07-17T02:12:45.066Z,98666.56
2018-07-17T02:15:14.149Z,98665.14
2018-07-17T02:17:43.210Z,98665.05
2018-07-17T02:20:12.366Z,98658.66
2018-07-17T02:22:41.522Z,98664.02
2018-07-17T02:25:10.633Z,98664.97
2018-07-17T02:27:39.755Z,98664.26
2018-07-17T02:30:08.789Z,98666.56
2018-07-17T02:32:37.874Z,98670.75
2018-07-17T02:35:06.926Z,98678.45
2018-07-17T02:37:35.991Z,98675.16
2018-07-17T02:40:05.317Z,98677.13
2018-07-17T02:42:34.389Z,98668.15
2018-07-17T02:45:03.436Z,98672.22
2018-07-17T02:47:32.613Z,98676.87
2018-07-17T02:50:01.650Z,98677.88
2018-07-17T02:52:30.770Z,98677.27
2018-07-17T02:54:59.917Z,98678.66
2018-07-17T02:57:29.029Z,98671.53
2018-07-17T02:59:58.059Z,98677.13
2018-07-17T03:02:27.126Z,98667.77
2018-07-17T03:04:56.181Z,98663.84
2018-07-17T03:07:25.292Z,98668.39
2018-07-17T03:09:54.425Z,98667.60
2018-07-17T03:12:23.515Z,98670.83
2018-07-17T03:14:52.616Z,98673.29
2018-07-17T03:17:21.633Z,98677.33
2018-07-17T03:19:52.326Z,98679.14
2018-07-17T03:22:22.375Z,98677.88
2018-07-17T03:24:51.481Z,98676.75
2018-07-17T03:27:20.521Z,98686.33
2018-07-17T03:29:49.600Z,98688.45
2018-07-17T03:32:18.668Z,98689.31
2018-07-17T03:34:47.750Z,98690.40
2018-07-17T03:37:16.816Z,98688.92
2018-07-17T03:39:46.028Z,98698.03
2018-07-17T03:42:15.118Z,98694.89
2018-07-17T03:44:45.149Z,98702.69
2018-07-17T03:47:14.762Z,98700.92
2018-07-17T03:49:43.839Z,98706.41
2018-07-17T03:52:12.938Z,98702.31
2018-07-17T03:54:42.070Z,98700.84
2018-07-17T03:57:11.116Z,98706.72
2018-07-17T03:59:40.214Z,98709.92
2018-07-17T04:02:09.374Z,98617.72
2018-07-17T04:04:38.426Z,98717.63
2018-07-17T04:07:07.483Z,98712.19
2018-07-17T04:09:36.661Z,98718.86
2018-07-17T04:12:05.797Z,98721.61
2018-07-17T04:14:34.893Z,98721.14
2018-07-17T04:17:03.966Z,98720.84
2018-07-17T04:19:33.119Z,98722.88
2018-07-17T04:22:02.210Z,98730.42
2018-07-17T04:24:31.282Z,98727.81
2018-07-17T04:27:00.357Z,98729.73
2018-07-17T04:29:29.493Z,98729.08
2018-07-17T04:31:58.567Z,98731.83
2018-07-17T04:34:27.626Z,98728.00
2018-07-17T04:36:56.781Z,98724.94
2018-07-17T04:39:25.874Z,98731.54
2018-07-17T04:41:54.967Z,98725.15
2018-07-17T04:44:24.916Z,98726.88
2018-07-17T04:46:54.026Z,98732.88
2018-07-17T04:49:23.109Z,98735.08
2018-07-17T04:51:52.250Z,98735.62
2018-07-17T04:54:21.286Z,98737.28
2018-07-17T04:56:50.577Z,98738.44
2018-07-17T04:59:19.621Z,98741.29
2018-07-17T05:01:48.713Z,98743.70
2018-07-17T05:04:17.827Z,98741.97
2018-07-17T05:06:46.881Z,98747.10
2018-07-17T05:09:16.036Z,98752.84
2018-07-17T05:11:51.324Z,98748.35
2018-07-17T05:14:20.438Z,98749.04
2018-07-17T05:16:49.490Z,98755.51
2018-07-17T05:19:18.555Z,98752.03
2018-07-17T05:21:47.699Z,98762.11
2018-07-17T05:24:16.774Z,98763.12
2018-07-17T05:26:45.833Z,98764.44
2018-07-17T05:29:14.920Z,98767.33
2018-07-17T05:31:44.013Z,98765.41
2018-07-17T05:34:13.131Z,98761.84
2018-07-17T05:36:42.226Z,98758.84
2018-07-17T05:39:11.301Z,98762.68
2018-07-17T05:41:40.432Z,98761.13
2018-07-17T05:44:09.923Z,98762.84
2018-07-17T05:46:39.045Z,98766.45
2018-07-17T05:49:08.123Z,98761.98
2018-07-17T05:51:37.572Z,98762.36
2018-07-17T05:54:06.728Z,98763.88
2018-07-17T05:56:35.819Z,98766.53
2018-07-17T05:59:06.269Z,98769.17
2018-07-17T06:01:35.820Z,98762.85
2018-07-17T06:04:05.872Z,98761.93
2018-07-17T06:06:34.965Z,98764.86
2018-07-17T06:09:04.953Z,98770.74
2018-07-17T06:11:34.070Z,98767.28
2018-07-17T06:14:03.245Z,98763.88
2018-07-17T06:16:32.351Z,98767.17
2018-07-17T06:19:01.717Z,98761.84
2018-07-17T06:21:30.870Z,98761.84
2018-07-17T06:24:00.529Z,98765.94
2018-07-17T06:26:29.658Z,98758.64
2018-07-17T06:28:58.983Z,98759.41
2018-07-17T06:31:28.067Z,98751.40
2018-07-17T06:33:57.245Z,98752.09
2018-07-17T06:36:26.397Z,98755.03
2018-07-17T06:38:55.817Z,98760.42
2018-07-17T06:41:25.761Z,98758.57
2018-07-17T06:43:54.900Z,98761.08
2018-07-17T06:46:24.046Z,98764.70
2018-07-17T06:48:53.116Z,98763.91
2018-07-17T06:51:22.697Z,98762.22
2018-07-17T06:53:51.848Z,98766.28
2018-07-17T06:56:20.990Z,98736.84
2018-07-17T06:58:50.281Z,98763.20
2018-07-17T07:01:19.441Z,98764.65
2018-07-17T07:03:48.951Z,98767.67
2018-07-17T07:06:18.060Z,98770.38
2018-07-17T07:08:47.183Z,98770.12
2018-07-17T07:11:16.384Z,98765.19
2018-07-17T07:13:45.450Z,98763.05
2018-07-17T07:16:14.530Z,98768.90
2018-07-17T07:18:43.673Z,98766.87
2018-07-17T07:21:13.535Z,98773.66
2018-07-17T07:23:42.789Z,98768.64
2018-07-17T07:26:11.905Z,98764.97
2018-07-17T07:28:41.261Z,98761.39
2018-07-17T07:31:10.713Z,98768.36
2018-07-17T07:33:39.789Z,98769.89
2018-07-17T07:36:08.950Z,98771.13
2018-07-17T07:38:38.647Z,98770.80
2018-07-17T07:41:07.759Z,98765.37
2018-07-17T07:43:36.923Z,98758.81
2018-07-17T07:46:06.121Z,98762.27
2018-07-17T07:48:35.425Z,98763.51
2018-07-17T07:51:04.450Z,98768.66
2018-07-17T07:53:34.174Z,98768.75
2018-07-17T07:56:03.204Z,98769.38
2018-07-17T07:58:32.349Z,98768.20
2018-07-17T08:01:01.552Z,98767.30
2018-07-17T08:03:30.671Z,98767.78
2018-07-17T08:06:00.000Z,98766.58
2018-07-17T08:08:29.038Z,98764.85
2018-07-17T08:10:58.237Z,98771.39
2018-07-17T08:13:27.322Z,98764.56
2018-07-17T08:15:56.442Z,98767.91
2018-07-17T08:18:26.170Z,98763.52
2018-07-17T08:20:55.387Z,98768.97
2018-07-17T08:23:24.465Z,98773.94
2018-07-17T08:25:53.541Z,98771.14
2018-07-17T08:28:22.557Z,98771.88
2018-07-17T08:30:51.829Z,98762.48
2018-07-17T08:33:20.898Z,98765.84
2018-07-17T08:35:50.037Z,98760.23
2018-07-17T08:38:19.183Z,98761.86
2018-07-17T08:40:48.242Z,98767.27
2018-07-17T08:43:17.538Z,98767.75
2018-07-17T08:45:46.590Z,98768.12
2018-07-17T08:48:15.637Z,98770.92
2018-07-17T08:50:44.833Z,98774.77
2018-07-17T08:53:13.919Z,98773.52
2018-07-17T08:55:43.016Z,98781.52
2018-07-17T08:58:12.043Z,98780.28
2018-07-17T09:00:41.142Z,98775.88
2018-07-17T09:03:10.154Z,98780.81
2018-07-17T09:05:39.234Z,98772.17
2018-07-17T09:08:09.045Z,98773.50
2018-07-17T09:10:38.110Z,98772.49
2018-07-17T09:13:07.404Z,98767.26
2018-07-17T09:15:37.392Z,98773.23
2018-07-17T09:18:06.697Z,98777.80
2018-07-17T09:20:35.782Z,98780.66
2018-07-17T09:23:05.731Z,98777.23
2018-07-17T09:25:34.754Z,98780.53
2018-07-17T09:28:03.906Z,98779.73
2018-07-17T09:30:38.206Z,98789.00
2018-07-17T09:33:07.617Z,98781.91
2018-07-17T09:35:36.850Z,98790.36
2018-07-17T09:38:06.436Z,98780.23
2018-07-17T09:40:35.528Z,98781.11
2018-07-17T09:43:04.626Z,98789.42
2018-07-17T09:45:33.830Z,98784.70
2018-07-17T09:48:02.988Z,98787.48
2018-07-17T09:50:32.105Z,98786.03
2018-07-17T09:53:01.312Z,98791.53
2018-07-17T09:55:30.452Z,98791.38
2018-07-17T09:57:59.733Z,98783.36
2018-07-17T10:00:34.113Z,98789.58
2018-07-17T10:03:03.786Z,98782.62
2018-07-17T10:05:32.845Z,98781.05
2018-07-17T10:08:02.444Z,98786.25
2018-07-17T10:10:31.548Z,98786.30
2018-07-17T10:13:00.702Z,98792.09
2018-07-17T10:15:30.143Z,98792.17
2018-07-17T10:17:59.273Z,98793.36
2018-07-17T10:20:28.409Z,98789.50
2018-07-17T10:22:57.537Z,98785.30
2018-07-17T10:25:26.666Z,98783.77
2018-07-17T10:27:55.773Z,98791.58
2018-07-17T10:30:28.410Z,98784.02
2018-07-17T10:32:57.609Z,98791.00
2018-07-17T10:35:26.729Z,98789.87
2018-07-17T10:37:55.911Z,98797.84
2018-07-17T10:40:25.085Z,98790.64
2018-07-17T10:42:54.278Z,98781.32
2018-07-17T10:45:23.355Z,98779.16
2018-07-17T10:47:52.397Z,98777.45
2018-07-17T10:50:21.491Z,98776.30
2018-07-17T10:52:50.619Z,98778.44
2018-07-17T10:55:20.145Z,98780.19
2018-07-17T10:57:49.202Z,98766.79
2018-07-17T11:00:18.347Z,98770.27
2018-07-17T11:02:47.808Z,98766.19
2018-07-17T11:05:16.957Z,98626.43
2018-07-17T11:07:46.440Z,98755.44
2018-07-17T11:10:15.622Z,98761.25
2018-07-17T11:12:44.698Z,98757.13
2018-07-17T11:15:14.060Z,98776.98
2018-07-17T11:17:43.186Z,98757.13
2018-07-17T11:20:12.305Z,98756.09
2018-07-17T11:22:41.358Z,98757.03
2018-07-17T11:25:10.570Z,98750.83
2018-07-17T11:27:39.750Z,98756.73
2018-07-17T11:30:08.899Z,98769.33
2018-07-17T11:32:38.010Z,98760.25
2018-07-17T11:35:07.315Z,98761.09
2018-07-17T11:37:36.918Z,98758.87
2018-07-17T11:40:06.340Z,98766.89
2018-07-17T11:42:35.517Z,98769.38
2018-07-17T11:45:04.594Z,98774.50
2018-07-17T11:47:33.715Z,98797.48
2018-07-17T11:50:02.873Z,98822.59
2018-07-17T11:52:31.917Z,98835.81
2018-07-17T11:55:01.678Z,98817.63
2018-07-17T11:57:30.724Z,98825.33
2018-07-17T11:59:59.887Z,98833.52
2018-07-17T12:02:28.978Z,98826.67
2018-07-17T12:04:58.130Z,98826.44
2018-07-17T12:07:28.450Z,98816.38
2018-07-17T12:09:57.566Z,98809.58
2018-07-17T12:12:26.817Z,98811.02
2018-07-17T12:14:55.940Z,98817.81
2018-07-17T12:17:25.115Z,98810.14
2018-07-17T12:19:54.241Z,98816.45
2018-07-17T12:22:23.247Z,98808.61
2018-07-17T12:24:52.294Z,98806.78
2018-07-17T12:27:21.324Z,98793.05
2018-07-17T12:29:50.426Z,98803.61
2018-07-17T12:32:19.526Z,98790.82
2018-07-17T12:34:48.735Z,98784.09
2018-07-17T12:37:17.734Z,98779.00
2018-07-17T12:39:46.793Z,98771.85
2018-07-17T12:42:16.714Z,98766.89
2018-07-17T12:44:45.790Z,98764.71
2018-07-17T12:47:15.150Z,98765.62
2018-07-17T12:49:44.254Z,98761.82
2018-07-17T12:52:13.283Z,98758.31
2018-07-17T12:54:42.925Z,98758.05
2018-07-17T12:57:12.029Z,98747.30
2018-07-17T12:59:41.218Z,98757.86
2018-07-17T13:02:10.473Z,98755.00
2018-07-17T13:04:39.717Z,98747.73
2018-07-17T13:07:08.810Z,98752.81
2018-07-17T13:09:37.975Z,98751.76
2018-07-17T13:12:07.029Z,98757.48
2018-07-17T13:14:36.158Z,98759.45
2018-07-17T13:17:05.211Z,98757.31
2018-07-17T13:19:34.393Z,98753.41
2018-07-17T13:22:03.453Z,98756.94
2018-07-17T13:24:32.528Z,98744.81
2018-07-17T13:27:02.488Z,98750.64
2018-07-17T13:29:31.814Z,98742.80
2018-07-17T13:32:00.975Z,98749.34
2018-07-17T13:34:30.045Z,98740.01
2018-07-17T13:36:59.162Z,98740.06
2018-07-17T13:39:28.560Z,98748.91
2018-07-17T13:41:57.593Z,98741.13
2018-07-17T13:44:26.671Z,98740.78
2018-07-17T13:46:55.762Z,98744.00
2018-07-17T13:49:24.826Z,98736.95
2018-07-17T13:51:54.042Z,98737.15
2018-07-17T13:54:23.120Z,98731.77
2018-07-17T13:56:52.217Z,98736.71
2018-07-17T13:59:21.339Z,98737.92
2018-07-17T14:01:50.425Z,98735.63
2018-07-17T14:04:19.498Z,98730.63
2018-07-17T14:06:48.761Z,98741.97
2018-07-17T14:09:17.796Z,98733.17
2018-07-17T14:11:46.951Z,98743.69
2018-07-17T14:14:16.086Z,98745.13
2018-07-17T14:16:45.241Z,98755.01
2018-07-17T14:19:14.297Z,98756.89
2018-07-17T14:21:43.377Z,98758.42
2018-07-17T14:24:19.030Z,98779.34
2018-07-17T14:26:48.453Z,98776.81
2018-07-17T14:29:23.204Z,98773.05
2018-07-17T14:31:52.323Z,98772.88
2018-07-17T14:34:21.487Z,98788.37
2018-07-17T14:36:50.605Z,98792.16
2018-07-17T14:39:19.767Z,98791.83
2018-07-17T14:41:49.055Z,98802.35
2018-07-17T14:44:18.159Z,98803.59
2018-07-17T14:46:47.347Z,98809.67
2018-07-17T14:49:16.659Z,98806.73
2018-07-17T14:51:45.773Z,98815.53
2018-07-17T14:54:14.887Z,98821.63
2018-07-17T14:56:44.031Z,98830.16
2018-07-17T14:59:13.131Z,98839.47
2018-07-17T15:01:42.282Z,98837.97
2018-07-17T15:04:11.442Z,98847.91
2018-07-17T15:06:41.332Z,98828.58
2018-07-17T15:09:10.545Z,98819.35
2018-07-17T15:11:39.614Z,98816.45
2018-07-17T15:14:08.735Z,98809.70
2018-07-17T15:16:37.965Z,98806.93
2018-07-17T15:19:07.235Z,98803.09
2018-07-17T15:21:36.439Z,98795.76
2018-07-17T15:24:05.504Z,98797.89
2018-07-17T15:26:34.612Z,98789.60
2018-07-17T15:29:03.754Z,98781.33
2018-07-17T15:31:32.927Z,98783.72
2018-07-17T15:34:02.392Z,98779.86
2018-07-17T15:36:31.499Z,98781.44
2018-07-17T15:39:01.317Z,98782.06
2018-07-17T15:41:30.411Z,98777.50
2018-07-17T15:43:59.566Z,98779.09
2018-07-17T15:46:28.730Z,98773.91
2018-07-17T15:48:57.807Z,98770.48
2018-07-17T15:51:26.903Z,98768.01
2018-07-17T15:53:56.084Z,98766.90
2018-07-17T15:56:25.249Z,98772.08
2018-07-17T15:58:54.288Z,98772.95
2018-07-17T16:01:23.478Z,98774.53
2018-07-17T16:03:52.874Z,98772.78
2018-07-17T16:06:22.330Z,98778.91
2018-07-17T16:08:51.346Z,98773.66
2018-07-17T16:11:20.533Z,98773.03
2018-07-17T16:13:49.784Z,98775.70
2018-07-17T16:16:18.814Z,98776.39
2018-07-17T16:18:47.958Z,98775.58
2018-07-17T16:21:17.386Z,98776.03
2018-07-17T16:23:46.432Z,98780.30
2018-07-17T16:26:15.710Z,98785.23
2018-07-17T16:28:44.925Z,98789.18
2018-07-17T16:31:15.226Z,98809.58
2018-07-17T16:33:44.358Z,98821.88
2018-07-17T16:36:13.419Z,98801.62
2018-07-17T16:38:42.747Z,98803.84
2018-07-17T16:41:12.385Z,98800.36
2018-07-17T16:43:41.477Z,98794.36
2018-07-17T16:46:10.529Z,98793.68
2018-07-17T16:48:39.617Z,98790.38
2018-07-17T16:51:08.721Z,98794.42
2018-07-17T16:53:37.853Z,98794.31
2018-07-17T16:56:07.498Z,98787.38
2018-07-17T16:58:36.586Z,98792.08
2018-07-17T17:01:05.687Z,98783.81
2018-07-17T17:03:34.811Z,98796.84
2018-07-17T17:06:03.882Z,98788.87
2018-07-17T17:08:32.942Z,98796.93
2018-07-17T17:11:02.019Z,98794.22
2018-07-17T17:13:31.167Z,98791.63
2018-07-17T17:16:00.262Z,98793.84
2018-07-17T17:18:29.330Z,98792.56
2018-07-17T17:20:58.466Z,98793.67
2018-07-17T17:23:27.605Z,98795.34
2018-07-17T17:25:57.143Z,98792.69
2018-07-17T17:28:26.598Z,98789.37
2018-07-17T17:30:56.574Z,98788.39
2018-07-17T17:33:26.213Z,98782.19
2018-07-17T17:35:55.531Z,98778.04
2018-07-17T17:38:24.666Z,98779.83
2018-07-17T17:40:53.718Z,98781.32
2018-07-17T17:43:23.017Z,98782.48
2018-07-17T17:45:52.122Z,98783.92
2018-07-17T17:48:21.201Z,98779.66
2018-07-17T17:50:50.948Z,98783.31
2018-07-17T17:53:20.007Z,98790.69
2018-07-17T17:55:49.148Z,98787.23
2018-07-17T17:58:18.205Z,98785.91
2018-07-17T18:00:49.157Z,98798.01
2018-07-17T18:03:18.227Z,98790.61
2018-07-17T18:05:47.637Z,98794.95
2018-07-17T18:08:16.716Z,98802.18
2018-07-17T18:10:45.898Z,98809.16
2018-07-17T18:13:14.952Z,98785.16
2018-07-17T18:15:44.430Z,98805.80
2018-07-17T18:18:13.603Z,98807.16
2018-07-17T18:20:43.385Z,98815.30
2018-07-17T18:23:12.496Z,98813.61
2018-07-17T18:25:41.596Z,98806.84
2018-07-17T18:28:10.693Z,98820.66
2018-07-17T18:30:39.861Z,98815.20
2018-07-17T18:33:08.955Z,98817.69
2018-07-17T18:35:38.016Z,98821.53
2018-07-17T18:38:07.178Z,98820.92
2018-07-17T18:40:38.646Z,98822.91
2018-07-17T18:43:07.742Z,98822.48
2018-07-17T18:45:36.752Z,98824.77
2018-07-17T18:48:06.012Z,98820.69
2018-07-17T18:50:35.098Z,98827.70
2018-07-17T18:53:04.271Z,98827.15
2018-07-17T18:55:33.401Z,98828.50
2018-07-17T18:58:02.528Z,98832.02
2018-07-17T19:00:31.567Z,98831.73
2018-07-17T19:03:00.651Z,98832.48
2018-07-17T19:06:01.437Z,98288.37
2018-07-17T19:08:41.088Z,98835.89
2018-07-17T19:11:19.951Z,98835.09
2018-07-17T19:13:54.599Z,98834.25
2018-07-17T19:16:23.677Z,98838.62
2018-07-17T19:18:52.777Z,98837.61
2018-07-17T19:21:21.877Z,98840.88
2018-07-17T19:23:51.272Z,98843.61
2018-07-17T19:26:20.675Z,98848.13
2018-07-17T19:28:49.957Z,98855.16
2018-07-17T19:31:19.131Z,98855.91
2018-07-17T19:33:48.235Z,98861.89
2018-07-17T19:36:17.434Z,98862.07
2018-07-17T19:38:46.568Z,98870.81
2018-07-17T19:41:15.734Z,98872.78
2018-07-17T19:43:45.051Z,98874.48
2018-07-17T19:46:14.128Z,98699.56
2018-07-17T19:48:43.266Z,98884.49
2018-07-17T19:51:28.192Z,98441.91
2018-07-17T19:54:01.806Z,98696.52
2018-07-17T19:56:32.945Z,98887.59
2018-07-17T19:59:02.060Z,98893.27
2018-07-17T20:01:31.139Z,98902.47
2018-07-17T20:04:00.213Z,98897.35
2018-07-17T20:06:29.384Z,98897.16
2018-07-17T20:08:59.076Z,98905.30
2018-07-17T20:11:28.443Z,98904.61
2018-07-17T20:13:57.518Z,98908.59
2018-07-17T20:16:26.629Z,98904.59
2018-07-17T20:18:55.707Z,98908.33
2018-07-17T20:21:24.998Z,98922.62
2018-07-17T20:23:54.052Z,98916.87
2018-07-17T20:26:23.165Z,98915.96
2018-07-17T20:28:52.270Z,98920.77
2018-07-17T20:31:21.554Z,98922.73
2018-07-17T20:33:50.652Z,98925.08
2018-07-17T20:36:19.679Z,98927.37
2018-07-17T20:38:48.739Z,98927.10
2018-07-17T20:41:17.817Z,98927.45
2018-07-17T20:43:47.281Z,98933.02
2018-07-17T20:46:16.490Z,98933.73
2018-07-17T20:48:45.696Z,98935.23
2018-07-17T20:51:14.761Z,98933.61
2018-07-17T20:53:43.815Z,98932.13
2018-07-17T20:56:13.389Z,98939.68
2018-07-17T20:58:42.653Z,98952.67
2018-07-17T21:01:12.024Z,98961.97
2018-07-17T21:03:41.436Z,98962.37
2018-07-17T21:06:11.112Z,98959.46
2018-07-17T21:08:40.227Z,98962.02
2018-07-17T21:11:09.670Z,98957.66
2018-07-17T21:13:39.664Z,98954.39
2018-07-17T21:16:09.042Z,98963.49
2018-07-17T21:18:38.179Z,98964.11
2018-07-17T21:21:07.437Z,98971.55
2018-07-17T21:23:36.538Z,98972.48
2018-07-17T21:26:05.982Z,98971.54
2018-07-17T21:28:35.152Z,98974.17
2018-07-17T21:31:04.208Z,98977.22
2018-07-17T21:33:33.431Z,98979.11
2018-07-17T21:36:02.568Z,98441.21
2018-07-17T21:38:31.820Z,98975.88
2018-07-17T21:41:00.910Z,98975.31
2018-07-17T21:43:29.975Z,98940.49
2018-07-17T21:45:59.337Z,98976.73
2018-07-17T21:48:28.414Z,98983.00
2018-07-17T21:50:57.520Z,98981.84
2018-07-17T21:53:26.549Z,98985.36
2018-07-17T21:55:55.625Z,98997.50
2018-07-17T21:58:24.763Z,98994.56
2018-07-17T22:00:53.992Z,98989.41
2018-07-17T22:03:23.052Z,98991.98
2018-07-17T22:05:52.280Z,98992.44
2018-07-17T22:08:21.337Z,98991.45
2018-07-17T22:10:50.767Z,98995.87
2018-07-17T22:13:20.043Z,98990.77
2018-07-17T22:15:49.149Z,98988.48
2018-07-17T22:18:18.191Z,98994.42
2018-07-17T22:20:47.236Z,98993.55
2018-07-17T22:23:16.420Z,98993.00
2018-07-17T22:25:45.603Z,98997.88
2018-07-17T22:28:14.642Z,98999.03
2018-07-17T22:30:43.714Z,98995.06
2018-07-17T22:33:12.796Z,98994.38
2018-07-17T22:35:41.858Z,98880.20
2018-07-17T22:38:11.224Z,98995.97
2018-07-17T22:40:40.290Z,98995.06
2018-07-17T22:43:09.358Z,98995.97
2018-07-17T22:45:38.431Z,98993.12
2018-07-17T22:48:07.529Z,98996.30
2018-07-17T22:50:36.621Z,98996.64
2018-07-17T22:53:05.666Z,99000.42
2018-07-17T22:55:34.977Z,99003.03
2018-07-17T22:58:04.055Z,99006.31
2018-07-17T23:00:33.088Z,99009.39
2018-07-17T23:03:02.125Z,99007.89
2018-07-17T23:05:31.162Z,99004.75
2018-07-17T23:08:00.185Z,99010.28
2018-07-17T23:10:29.199Z,99001.97
2018-07-17T23:12:58.268Z,99000.39
2018-07-17T23:15:27.307Z,99006.45
2018-07-17T23:17:56.333Z,99005.10
2018-07-17T23:20:25.475Z,99003.97
2018-07-17T23:22:56.643Z,98998.25
2018-07-17T23:25:26.763Z,99004.99
2018-07-17T23:27:56.450Z,99002.63
2018-07-17T23:30:25.568Z,99003.98
2018-07-17T23:32:54.775Z,99002.20
2018-07-17T23:35:24.793Z,99006.89
2018-07-17T23:37:54.177Z,99002.75
2018-07-17T23:40:23.581Z,99007.80
2018-07-17T23:42:52.714Z,99009.36
2018-07-17T23:45:28.348Z,99011.39
2018-07-17T23:47:57.396Z,99013.19
2018-07-17T23:50:26.391Z,99018.56
2018-07-17T23:52:55.452Z,99019.23
2018-07-17T23:55:24.481Z,99014.42
2018-07-17T23:57:53.845Z,99014.42
